YGEL

Geraldton Airport

Airport
ICAO code
YGEL
IATA Code
GET
Summary
ICAO Region
APAC
ICAO Territory
Location

, Western Australia

Serving
Geraldton
Elevation
121 ft
Coordinates
28° 47' 46" S , 114° 42' 25" E
Metar
Observation
YGEL 280830Z AUTO 18017KT 9999 // NCD 27/15 Q1009 RF00.0/000.0
Station
GERALDTON
Date/Time
2022-11-28 08:30:00
Wind direction
180°
Wind speed
17 kts
Lowest cloud amount
no clouds detected
Temperature
27°C
Dew point
15°C
Humidity
47%
QNH
1009 hPa
Weather condition
n/a

Airport map

Aerial View

SKYbrary Partners:

Safety knowledge contributed by: